sensor_id;sensor_type;location;lat;lon;timestamp;temperature;humidity
27314;DHT22;14800;48.174;9.798;2023-04-25T00:02:24;10.10;67.30
27314;DHT22;14800;48.174;9.798;2023-04-25T00:04:50;10.20;67.30
27314;DHT22;14800;48.174;9.798;2023-04-25T00:07:15;10.20;67.20
27314;DHT22;14800;48.174;9.798;2023-04-25T00:09:42;10.20;67.10
27314;DHT22;14800;48.174;9.798;2023-04-25T00:12:07;10.20;66.90
27314;DHT22;14800;48.174;9.798;2023-04-25T00:14:33;10.20;67.00
27314;DHT22;14800;48.174;9.798;2023-04-25T00:17:00;10.30;67.10
27314;DHT22;14800;48.174;9.798;2023-04-25T00:19:26;10.20;67.00
27314;DHT22;14800;48.174;9.798;2023-04-25T00:21:56;10.30;67.10
27314;DHT22;14800;48.174;9.798;2023-04-25T00:24:22;10.30;67.10
27314;DHT22;14800;48.174;9.798;2023-04-25T00:26:48;10.30;67.00
27314;DHT22;14800;48.174;9.798;2023-04-25T00:29:14;10.30;67.00
27314;DHT22;14800;48.174;9.798;2023-04-25T00:31:39;10.40;67.10
27314;DHT22;14800;48.174;9.798;2023-04-25T00:34:06;10.40;67.10
27314;DHT22;14800;48.174;9.798;2023-04-25T00:36:33;10.30;67.20
27314;DHT22;14800;48.174;9.798;2023-04-25T00:38:59;10.40;67.20
27314;DHT22;14800;48.174;9.798;2023-04-25T00:41:25;10.40;67.20
27314;DHT22;14800;48.174;9.798;2023-04-25T00:43:52;10.40;67.30
27314;DHT22;14800;48.174;9.798;2023-04-25T00:46:19;10.40;67.40
27314;DHT22;14800;48.174;9.798;2023-04-25T00:48:44;10.30;67.60
27314;DHT22;14800;48.174;9.798;2023-04-25T00:51:15;10.40;67.80
27314;DHT22;14800;48.174;9.798;2023-04-25T00:53:41;10.30;68.00
27314;DHT22;14800;48.174;9.798;2023-04-25T00:56:07;10.30;68.00
27314;DHT22;14800;48.174;9.798;2023-04-25T00:58:33;10.30;68.10
27314;DHT22;14800;48.174;9.798;2023-04-25T01:01:00;10.30;68.40
27314;DHT22;14800;48.174;9.798;2023-04-25T01:03:26;10.30;68.60
27314;DHT22;14800;48.174;9.798;2023-04-25T01:05:54;10.30;68.60
27314;DHT22;14800;48.174;9.798;2023-04-25T01:08:21;10.30;68.60
27314;DHT22;14800;48.174;9.798;2023-04-25T01:10:48;10.30;68.60
27314;DHT22;14800;48.174;9.798;2023-04-25T01:13:14;10.30;68.80
27314;DHT22;14800;48.174;9.798;2023-04-25T01:15:40;10.20;68.80
27314;DHT22;14800;48.174;9.798;2023-04-25T01:18:06;10.20;69.00
27314;DHT22;14800;48.174;9.798;2023-04-25T01:20:32;10.10;68.80
27314;DHT22;14800;48.174;9.798;2023-04-25T01:22:58;10.10;69.00
27314;DHT22;14800;48.174;9.798;2023-04-25T01:25:24;10.00;69.20
27314;DHT22;14800;48.174;9.798;2023-04-25T01:27:50;10.00;69.40
27314;DHT22;14800;48.174;9.798;2023-04-25T01:30:16;10.00;69.50
27314;DHT22;14800;48.174;9.798;2023-04-25T01:32:42;10.00;69.50
27314;DHT22;14800;48.174;9.798;2023-04-25T01:35:10;10.00;69.60
27314;DHT22;14800;48.174;9.798;2023-04-25T01:37:37;10.00;69.70
27314;DHT22;14800;48.174;9.798;2023-04-25T01:40:03;9.90;69.60
27314;DHT22;14800;48.174;9.798;2023-04-25T01:42:31;10.00;69.70
27314;DHT22;14800;48.174;9.798;2023-04-25T01:44:57;9.90;69.70
27314;DHT22;14800;48.174;9.798;2023-04-25T01:47:23;10.00;69.80
27314;DHT22;14800;48.174;9.798;2023-04-25T01:49:48;10.00;69.90
27314;DHT22;14800;48.174;9.798;2023-04-25T01:52:14;10.00;69.90
27314;DHT22;14800;48.174;9.798;2023-04-25T01:54:40;9.90;69.90
27314;DHT22;14800;48.174;9.798;2023-04-25T01:57:09;9.90;69.80
27314;DHT22;14800;48.174;9.798;2023-04-25T01:59:36;10.00;69.90
27314;DHT22;14800;48.174;9.798;2023-04-25T02:02:02;9.90;70.00
27314;DHT22;14800;48.174;9.798;2023-04-25T02:04:29;9.90;70.10
27314;DHT22;14800;48.174;9.798;2023-04-25T02:06:55;9.80;70.40
27314;DHT22;14800;48.174;9.798;2023-04-25T02:09:21;9.80;70.70
27314;DHT22;14800;48.174;9.798;2023-04-25T02:11:46;9.70;70.70
27314;DHT22;14800;48.174;9.798;2023-04-25T02:14:12;9.70;71.00
27314;DHT22;14800;48.174;9.798;2023-04-25T02:16:37;9.60;71.10
27314;DHT22;14800;48.174;9.798;2023-04-25T02:19:05;9.60;71.30
27314;DHT22;14800;48.174;9.798;2023-04-25T02:21:31;9.50;71.20
27314;DHT22;14800;48.174;9.798;2023-04-25T02:23:57;9.50;71.20
27314;DHT22;14800;48.174;9.798;2023-04-25T02:26:23;9.50;71.30
27314;DHT22;14800;48.174;9.798;2023-04-25T02:28:49;9.50;71.40
27314;DHT22;14800;48.174;9.798;2023-04-25T02:31:15;9.50;71.40
27314;DHT22;14800;48.174;9.798;2023-04-25T02:33:41;9.40;71.40
27314;DHT22;14800;48.174;9.798;2023-04-25T02:36:07;9.40;71.50
27314;DHT22;14800;48.174;9.798;2023-04-25T02:38:32;9.50;71.60
27314;DHT22;14800;48.174;9.798;2023-04-25T02:40:58;9.50;71.60
27314;DHT22;14800;48.174;9.798;2023-04-25T02:43:23;9.50;71.60
27314;DHT22;14800;48.174;9.798;2023-04-25T02:45:49;9.50;71.40
27314;DHT22;14800;48.174;9.798;2023-04-25T02:48:14;9.50;71.40
27314;DHT22;14800;48.174;9.798;2023-04-25T02:50:40;9.50;71.60
27314;DHT22;14800;48.174;9.798;2023-04-25T02:53:05;9.50;71.50
27314;DHT22;14800;48.174;9.798;2023-04-25T02:55:31;9.50;71.60
27314;DHT22;14800;48.174;9.798;2023-04-25T02:57:57;9.50;71.50
27314;DHT22;14800;48.174;9.798;2023-04-25T03:00:22;9.50;71.50
27314;DHT22;14800;48.174;9.798;2023-04-25T03:02:48;9.50;71.40
27314;DHT22;14800;48.174;9.798;2023-04-25T03:05:14;9.50;71.40
27314;DHT22;14800;48.174;9.798;2023-04-25T03:07:39;9.60;71.60
27314;DHT22;14800;48.174;9.798;2023-04-25T03:10:08;9.60;71.60
27314;DHT22;14800;48.174;9.798;2023-04-25T03:12:33;9.60;71.80
27314;DHT22;14800;48.174;9.798;2023-04-25T03:14:59;9.60;71.80
27314;DHT22;14800;48.174;9.798;2023-04-25T03:17:24;9.50;72.00
27314;DHT22;14800;48.174;9.798;2023-04-25T03:19:50;9.50;72.10
27314;DHT22;14800;48.174;9.798;2023-04-25T03:22:15;9.50;72.30
27314;DHT22;14800;48.174;9.798;2023-04-25T03:24:41;9.50;72.50
27314;DHT22;14800;48.174;9.798;2023-04-25T03:27:07;9.50;72.60
27314;DHT22;14800;48.174;9.798;2023-04-25T03:29:32;9.40;72.60
27314;DHT22;14800;48.174;9.798;2023-04-25T03:31:58;9.40;72.80
27314;DHT22;14800;48.174;9.798;2023-04-25T03:34:23;9.40;72.90
27314;DHT22;14800;48.174;9.798;2023-04-25T03:36:49;9.30;73.30
27314;DHT22;14800;48.174;9.798;2023-04-25T03:39:15;9.30;73.40
27314;DHT22;14800;48.174;9.798;2023-04-25T03:41:41;9.30;73.50
27314;DHT22;14800;48.174;9.798;2023-04-25T03:44:06;9.30;73.80
27314;DHT22;14800;48.174;9.798;2023-04-25T03:46:32;9.30;73.90
27314;DHT22;14800;48.174;9.798;2023-04-25T03:48:58;9.30;74.00
27314;DHT22;14800;48.174;9.798;2023-04-25T03:51:24;9.30;74.20
27314;DHT22;14800;48.174;9.798;2023-04-25T03:53:51;9.30;74.20
27314;DHT22;14800;48.174;9.798;2023-04-25T03:56:18;9.30;74.20
27314;DHT22;14800;48.174;9.798;2023-04-25T03:58:45;9.30;74.20
27314;DHT22;14800;48.174;9.798;2023-04-25T04:01:11;9.30;74.20
27314;DHT22;14800;48.174;9.798;2023-04-25T04:03:36;9.40;74.40
27314;DHT22;14800;48.174;9.798;2023-04-25T04:06:03;9.40;74.40
27314;DHT22;14800;48.174;9.798;2023-04-25T04:08:29;9.40;74.50
27314;DHT22;14800;48.174;9.798;2023-04-25T04:10:56;9.30;74.50
27314;DHT22;14800;48.174;9.798;2023-04-25T04:13:22;9.30;74.30
27314;DHT22;14800;48.174;9.798;2023-04-25T04:15:48;9.30;74.20
27314;DHT22;14800;48.174;9.798;2023-04-25T04:18:13;9.40;74.20
27314;DHT22;14800;48.174;9.798;2023-04-25T04:20:39;9.30;74.00
27314;DHT22;14800;48.174;9.798;2023-04-25T04:23:04;9.30;74.10
27314;DHT22;14800;48.174;9.798;2023-04-25T04:25:31;9.30;74.10
27314;DHT22;14800;48.174;9.798;2023-04-25T04:27:56;9.30;74.00
27314;DHT22;14800;48.174;9.798;2023-04-25T04:30:23;9.30;73.90
27314;DHT22;14800;48.174;9.798;2023-04-25T04:32:55;9.30;73.80
27314;DHT22;14800;48.174;9.798;2023-04-25T04:35:21;9.20;73.80
27314;DHT22;14800;48.174;9.798;2023-04-25T04:37:47;9.20;73.80
27314;DHT22;14800;48.174;9.798;2023-04-25T04:40:14;9.10;73.80
27314;DHT22;14800;48.174;9.798;2023-04-25T04:42:41;9.10;73.80
27314;DHT22;14800;48.174;9.798;2023-04-25T04:45:08;9.10;73.90
27314;DHT22;14800;48.174;9.798;2023-04-25T04:47:34;9.10;73.90
27314;DHT22;14800;48.174;9.798;2023-04-25T04:50:05;9.00;74.00
27314;DHT22;14800;48.174;9.798;2023-04-25T04:52:34;9.00;74.00
27314;DHT22;14800;48.174;9.798;2023-04-25T04:54:59;9.00;74.90
27314;DHT22;14800;48.174;9.798;2023-04-25T04:57:25;9.00;74.20
27314;DHT22;14800;48.174;9.798;2023-04-25T04:59:51;9.00;74.20
27314;DHT22;14800;48.174;9.798;2023-04-25T05:02:16;9.00;74.10
27314;DHT22;14800;48.174;9.798;2023-04-25T05:04:42;9.00;74.70
27314;DHT22;14800;48.174;9.798;2023-04-25T05:07:07;9.00;74.10
27314;DHT22;14800;48.174;9.798;2023-04-25T05:09:33;9.00;74.00
27314;DHT22;14800;48.174;9.798;2023-04-25T05:11:58;9.00;74.00
27314;DHT22;14800;48.174;9.798;2023-04-25T05:14:24;9.00;74.00
27314;DHT22;14800;48.174;9.798;2023-04-25T05:16:50;9.00;74.00
27314;DHT22;14800;48.174;9.798;2023-04-25T05:19:16;8.90;73.90
27314;DHT22;14800;48.174;9.798;2023-04-25T05:21:41;9.00;73.90
27314;DHT22;14800;48.174;9.798;2023-04-25T05:24:08;9.00;73.80
27314;DHT22;14800;48.174;9.798;2023-04-25T05:26:34;9.00;74.70
27314;DHT22;14800;48.174;9.798;2023-04-25T05:28:59;9.00;73.80
27314;DHT22;14800;48.174;9.798;2023-04-25T05:31:25;9.00;73.90
27314;DHT22;14800;48.174;9.798;2023-04-25T05:33:51;9.00;74.00
27314;DHT22;14800;48.174;9.798;2023-04-25T05:36:20;9.10;74.10
27314;DHT22;14800;48.174;9.798;2023-04-25T05:38:46;9.10;74.40
27314;DHT22;14800;48.174;9.798;2023-04-25T05:41:12;9.10;74.40
27314;DHT22;14800;48.174;9.798;2023-04-25T05:43:37;9.20;74.50
27314;DHT22;14800;48.174;9.798;2023-04-25T05:46:03;9.20;74.40
27314;DHT22;14800;48.174;9.798;2023-04-25T05:48:29;9.20;74.40
27314;DHT22;14800;48.174;9.798;2023-04-25T05:50:55;9.30;74.30
27314;DHT22;14800;48.174;9.798;2023-04-25T05:53:21;9.30;74.40
27314;DHT22;14800;48.174;9.798;2023-04-25T05:55:47;9.40;74.40
27314;DHT22;14800;48.174;9.798;2023-04-25T05:58:13;9.40;74.50
27314;DHT22;14800;48.174;9.798;2023-04-25T06:00:38;9.50;74.50
27314;DHT22;14800;48.174;9.798;2023-04-25T06:03:04;9.50;74.40
27314;DHT22;14800;48.174;9.798;2023-04-25T06:05:30;9.60;74.20
27314;DHT22;14800;48.174;9.798;2023-04-25T06:07:55;9.70;74.20
27314;DHT22;14800;48.174;9.798;2023-04-25T06:10:21;9.70;74.00
27314;DHT22;14800;48.174;9.798;2023-04-25T06:12:49;9.80;73.90
27314;DHT22;14800;48.174;9.798;2023-04-25T06:15:14;9.90;73.90
27314;DHT22;14800;48.174;9.798;2023-04-25T06:17:41;9.90;73.90
27314;DHT22;14800;48.174;9.798;2023-04-25T06:20:07;9.90;73.70
27314;DHT22;14800;48.174;9.798;2023-04-25T06:22:33;9.90;73.50
27314;DHT22;14800;48.174;9.798;2023-04-25T06:24:59;10.00;73.40
27314;DHT22;14800;48.174;9.798;2023-04-25T06:27:25;10.10;73.30
27314;DHT22;14800;48.174;9.798;2023-04-25T06:29:51;10.10;73.20
27314;DHT22;14800;48.174;9.798;2023-04-25T06:32:16;10.20;73.20
27314;DHT22;14800;48.174;9.798;2023-04-25T06:34:43;10.20;73.10
27314;DHT22;14800;48.174;9.798;2023-04-25T06:37:09;10.20;73.00
27314;DHT22;14800;48.174;9.798;2023-04-25T06:39:34;10.30;73.10
27314;DHT22;14800;48.174;9.798;2023-04-25T06:42:00;10.30;72.90
27314;DHT22;14800;48.174;9.798;2023-04-25T06:44:25;10.40;72.60
27314;DHT22;14800;48.174;9.798;2023-04-25T06:46:51;10.40;72.60
27314;DHT22;14800;48.174;9.798;2023-04-25T06:49:17;10.50;72.50
27314;DHT22;14800;48.174;9.798;2023-04-25T06:51:42;10.60;73.50
27314;DHT22;14800;48.174;9.798;2023-04-25T06:54:08;10.70;72.60
27314;DHT22;14800;48.174;9.798;2023-04-25T06:56:34;10.70;72.50
27314;DHT22;14800;48.174;9.798;2023-04-25T06:58:59;10.80;72.00
27314;DHT22;14800;48.174;9.798;2023-04-25T07:01:26;10.90;71.40
27314;DHT22;14800;48.174;9.798;2023-04-25T07:03:51;11.00;71.10
27314;DHT22;14800;48.174;9.798;2023-04-25T07:06:17;11.10;71.30
27314;DHT22;14800;48.174;9.798;2023-04-25T07:08:43;11.20;71.30
27314;DHT22;14800;48.174;9.798;2023-04-25T07:11:08;11.20;71.10
27314;DHT22;14800;48.174;9.798;2023-04-25T07:13:34;11.30;70.70
27314;DHT22;14800;48.174;9.798;2023-04-25T07:15:59;11.40;70.40
27314;DHT22;14800;48.174;9.798;2023-04-25T07:18:25;11.50;70.20
27314;DHT22;14800;48.174;9.798;2023-04-25T07:20:51;11.50;69.70
27314;DHT22;14800;48.174;9.798;2023-04-25T07:23:16;11.60;69.40
27314;DHT22;14800;48.174;9.798;2023-04-25T07:25:42;11.70;68.80
27314;DHT22;14800;48.174;9.798;2023-04-25T07:28:07;11.70;68.80
27314;DHT22;14800;48.174;9.798;2023-04-25T07:30:33;11.70;68.80
27314;DHT22;14800;48.174;9.798;2023-04-25T07:33:00;11.80;68.50
27314;DHT22;14800;48.174;9.798;2023-04-25T07:35:25;11.80;68.60
27314;DHT22;14800;48.174;9.798;2023-04-25T07:37:51;11.80;68.60
27314;DHT22;14800;48.174;9.798;2023-04-25T07:40:17;11.80;68.30
27314;DHT22;14800;48.174;9.798;2023-04-25T07:42:42;11.80;68.30
27314;DHT22;14800;48.174;9.798;2023-04-25T07:45:08;11.80;68.30
27314;DHT22;14800;48.174;9.798;2023-04-25T07:47:34;11.90;68.10
27314;DHT22;14800;48.174;9.798;2023-04-25T07:50:00;11.90;68.00
27314;DHT22;14800;48.174;9.798;2023-04-25T07:52:26;12.00;67.50
27314;DHT22;14800;48.174;9.798;2023-04-25T07:54:51;12.00;67.20
27314;DHT22;14800;48.174;9.798;2023-04-25T07:57:17;12.00;67.10
27314;DHT22;14800;48.174;9.798;2023-04-25T07:59:43;12.00;67.10
27314;DHT22;14800;48.174;9.798;2023-04-25T08:02:09;12.00;67.30
27314;DHT22;14800;48.174;9.798;2023-04-25T08:04:35;12.00;67.50
27314;DHT22;14800;48.174;9.798;2023-04-25T08:07:00;12.00;67.30
27314;DHT22;14800;48.174;9.798;2023-04-25T08:09:26;12.00;66.90
27314;DHT22;14800;48.174;9.798;2023-04-25T08:11:52;11.90;66.60
27314;DHT22;14800;48.174;9.798;2023-04-25T08:14:17;11.90;66.50
27314;DHT22;14800;48.174;9.798;2023-04-25T08:16:43;11.90;66.90
27314;DHT22;14800;48.174;9.798;2023-04-25T08:19:09;11.80;67.20
27314;DHT22;14800;48.174;9.798;2023-04-25T08:21:36;11.80;67.60
27314;DHT22;14800;48.174;9.798;2023-04-25T08:24:02;11.80;67.80
27314;DHT22;14800;48.174;9.798;2023-04-25T08:26:28;11.80;67.80
27314;DHT22;14800;48.174;9.798;2023-04-25T08:28:53;11.90;68.00
27314;DHT22;14800;48.174;9.798;2023-04-25T08:31:19;11.90;68.00
27314;DHT22;14800;48.174;9.798;2023-04-25T08:33:45;11.80;68.30
27314;DHT22;14800;48.174;9.798;2023-04-25T08:36:11;11.90;68.40
27314;DHT22;14800;48.174;9.798;2023-04-25T08:38:36;11.90;68.20
27314;DHT22;14800;48.174;9.798;2023-04-25T08:41:02;11.80;68.40
27314;DHT22;14800;48.174;9.798;2023-04-25T08:43:29;11.80;68.70
27314;DHT22;14800;48.174;9.798;2023-04-25T08:45:59;11.80;68.80
27314;DHT22;14800;48.174;9.798;2023-04-25T08:48:27;11.80;69.10
27314;DHT22;14800;48.174;9.798;2023-04-25T08:50:55;11.80;68.80
27314;DHT22;14800;48.174;9.798;2023-04-25T08:53:28;11.80;67.40
27314;DHT22;14800;48.174;9.798;2023-04-25T08:55:56;11.80;66.00
27314;DHT22;14800;48.174;9.798;2023-04-25T08:58:22;11.70;66.00
27314;DHT22;14800;48.174;9.798;2023-04-25T09:00:49;11.70;66.40
27314;DHT22;14800;48.174;9.798;2023-04-25T09:03:16;11.70;66.50
27314;DHT22;14800;48.174;9.798;2023-04-25T09:05:42;11.70;67.10
27314;DHT22;14800;48.174;9.798;2023-04-25T09:08:08;11.60;67.20
27314;DHT22;14800;48.174;9.798;2023-04-25T09:10:34;11.60;67.40
27314;DHT22;14800;48.174;9.798;2023-04-25T09:13:10;11.60;67.70
27314;DHT22;14800;48.174;9.798;2023-04-25T09:15:50;11.60;67.80
27314;DHT22;14800;48.174;9.798;2023-04-25T09:18:24;11.70;68.30
27314;DHT22;14800;48.174;9.798;2023-04-25T09:20:52;11.70;67.20
27314;DHT22;14800;48.174;9.798;2023-04-25T09:23:20;11.70;66.90
27314;DHT22;14800;48.174;9.798;2023-04-25T09:25:51;11.80;66.90
27314;DHT22;14800;48.174;9.798;2023-04-25T09:28:23;11.80;66.90
27314;DHT22;14800;48.174;9.798;2023-04-25T09:30:55;11.80;66.70
27314;DHT22;14800;48.174;9.798;2023-04-25T09:33:30;11.70;67.10
27314;DHT22;14800;48.174;9.798;2023-04-25T09:36:04;11.50;67.80
27314;DHT22;14800;48.174;9.798;2023-04-25T09:38:31;11.40;68.10
27314;DHT22;14800;48.174;9.798;2023-04-25T09:40:57;11.30;68.30
27314;DHT22;14800;48.174;9.798;2023-04-25T09:43:24;11.20;68.30
27314;DHT22;14800;48.174;9.798;2023-04-25T09:45:50;11.10;68.50
27314;DHT22;14800;48.174;9.798;2023-04-25T09:48:25;11.00;68.80
27314;DHT22;14800;48.174;9.798;2023-04-25T09:53:42;10.80;70.00
27314;DHT22;14800;48.174;9.798;2023-04-25T09:56:11;10.70;69.90
27314;DHT22;14800;48.174;9.798;2023-04-25T09:58:40;10.60;69.70
27314;DHT22;14800;48.174;9.798;2023-04-25T10:01:10;10.50;69.90
27314;DHT22;14800;48.174;9.798;2023-04-25T10:03:40;10.40;70.20
27314;DHT22;14800;48.174;9.798;2023-04-25T10:06:12;10.30;70.50
27314;DHT22;14800;48.174;9.798;2023-04-25T10:08:38;10.30;71.10
27314;DHT22;14800;48.174;9.798;2023-04-25T10:11:06;10.20;70.90
27314;DHT22;14800;48.174;9.798;2023-04-25T10:13:33;10.10;71.40
27314;DHT22;14800;48.174;9.798;2023-04-25T10:16:01;10.10;71.60
27314;DHT22;14800;48.174;9.798;2023-04-25T10:18:28;10.00;72.00
27314;DHT22;14800;48.174;9.798;2023-04-25T10:20:56;10.00;72.20
27314;DHT22;14800;48.174;9.798;2023-04-25T10:23:23;9.80;72.10
27314;DHT22;14800;48.174;9.798;2023-04-25T10:25:52;9.90;72.30
27314;DHT22;14800;48.174;9.798;2023-04-25T10:28:19;9.90;72.50
27314;DHT22;14800;48.174;9.798;2023-04-25T10:31:00;9.80;72.40
27314;DHT22;14800;48.174;9.798;2023-04-25T10:33:44;9.80;72.90
27314;DHT22;14800;48.174;9.798;2023-04-25T10:36:15;9.80;73.50
27314;DHT22;14800;48.174;9.798;2023-04-25T10:38:43;9.70;73.20
27314;DHT22;14800;48.174;9.798;2023-04-25T10:41:10;9.70;73.00
27314;DHT22;14800;48.174;9.798;2023-04-25T10:43:39;9.70;73.20
27314;DHT22;14800;48.174;9.798;2023-04-25T10:46:25;9.70;73.50
27314;DHT22;14800;48.174;9.798;2023-04-25T10:48:51;9.70;74.50
27314;DHT22;14800;48.174;9.798;2023-04-25T10:51:18;9.70;74.00
27314;DHT22;14800;48.174;9.798;2023-04-25T10:53:45;9.70;74.40
27314;DHT22;14800;48.174;9.798;2023-04-25T10:56:27;9.70;74.90
27314;DHT22;14800;48.174;9.798;2023-04-25T10:59:11;9.70;76.00
27314;DHT22;14800;48.174;9.798;2023-04-25T11:01:48;9.60;77.00
27314;DHT22;14800;48.174;9.798;2023-04-25T11:04:24;9.60;75.80
27314;DHT22;14800;48.174;9.798;2023-04-25T11:09:32;9.60;77.00
27314;DHT22;14800;48.174;9.798;2023-04-25T11:11:59;9.60;76.20
27314;DHT22;14800;48.174;9.798;2023-04-25T11:14:26;9.50;77.00
27314;DHT22;14800;48.174;9.798;2023-04-25T11:16:59;9.50;77.00
27314;DHT22;14800;48.174;9.798;2023-04-25T11:19:26;9.40;77.50
27314;DHT22;14800;48.174;9.798;2023-04-25T11:21:56;9.30;77.30
27314;DHT22;14800;48.174;9.798;2023-04-25T11:24:32;9.20;77.70
27314;DHT22;14800;48.174;9.798;2023-04-25T11:26:59;9.20;78.80
27314;DHT22;14800;48.174;9.798;2023-04-25T11:29:28;9.10;79.90
27314;DHT22;14800;48.174;9.798;2023-04-25T11:31:55;9.10;79.50
27314;DHT22;14800;48.174;9.798;2023-04-25T11:34:32;9.10;78.90
27314;DHT22;14800;48.174;9.798;2023-04-25T11:36:59;9.10;78.90
27314;DHT22;14800;48.174;9.798;2023-04-25T11:39:25;9.00;78.60
27314;DHT22;14800;48.174;9.798;2023-04-25T11:41:52;9.00;78.90
27314;DHT22;14800;48.174;9.798;2023-04-25T11:44:19;9.00;79.80
27314;DHT22;14800;48.174;9.798;2023-04-25T11:46:45;9.00;79.80
27314;DHT22;14800;48.174;9.798;2023-04-25T11:49:11;8.90;79.10
27314;DHT22;14800;48.174;9.798;2023-04-25T11:51:44;8.80;78.90
27314;DHT22;14800;48.174;9.798;2023-04-25T11:54:10;8.80;79.60
27314;DHT22;14800;48.174;9.798;2023-04-25T11:56:37;8.80;79.40
27314;DHT22;14800;48.174;9.798;2023-04-25T11:59:04;8.70;80.00
27314;DHT22;14800;48.174;9.798;2023-04-25T12:01:31;8.70;80.60
27314;DHT22;14800;48.174;9.798;2023-04-25T12:03:57;8.70;80.60
27314;DHT22;14800;48.174;9.798;2023-04-25T12:06:29;8.60;80.50
27314;DHT22;14800;48.174;9.798;2023-04-25T12:09:06;8.60;81.30
27314;DHT22;14800;48.174;9.798;2023-04-25T12:11:40;8.50;81.60
27314;DHT22;14800;48.174;9.798;2023-04-25T12:14:05;8.50;81.20
27314;DHT22;14800;48.174;9.798;2023-04-25T12:16:42;8.50;81.10
27314;DHT22;14800;48.174;9.798;2023-04-25T12:19:07;8.50;81.30
27314;DHT22;14800;48.174;9.798;2023-04-25T12:21:33;8.40;81.00
27314;DHT22;14800;48.174;9.798;2023-04-25T12:24:22;8.40;81.50
27314;DHT22;14800;48.174;9.798;2023-04-25T12:27:03;8.40;83.20
27314;DHT22;14800;48.174;9.798;2023-04-25T12:29:31;8.40;82.60
27314;DHT22;14800;48.174;9.798;2023-04-25T12:31:58;8.40;82.30
27314;DHT22;14800;48.174;9.798;2023-04-25T12:34:24;8.40;82.40
27314;DHT22;14800;48.174;9.798;2023-04-25T12:36:50;8.40;82.10
27314;DHT22;14800;48.174;9.798;2023-04-25T12:39:20;8.40;82.40
27314;DHT22;14800;48.174;9.798;2023-04-25T12:41:50;8.40;82.40
27314;DHT22;14800;48.174;9.798;2023-04-25T12:44:17;8.40;82.10
27314;DHT22;14800;48.174;9.798;2023-04-25T12:46:43;8.40;82.30
27314;DHT22;14800;48.174;9.798;2023-04-25T12:49:09;8.40;82.70
27314;DHT22;14800;48.174;9.798;2023-04-25T12:51:35;8.40;82.80
27314;DHT22;14800;48.174;9.798;2023-04-25T12:54:02;8.40;82.90
27314;DHT22;14800;48.174;9.798;2023-04-25T12:56:29;8.40;82.40
27314;DHT22;14800;48.174;9.798;2023-04-25T12:58:54;8.30;82.40
27314;DHT22;14800;48.174;9.798;2023-04-25T13:01:21;8.30;82.60
27314;DHT22;14800;48.174;9.798;2023-04-25T13:03:47;8.30;83.30
27314;DHT22;14800;48.174;9.798;2023-04-25T13:06:13;8.30;83.10
27314;DHT22;14800;48.174;9.798;2023-04-25T13:08:39;8.30;82.80
27314;DHT22;14800;48.174;9.798;2023-04-25T13:11:06;8.30;82.70
27314;DHT22;14800;48.174;9.798;2023-04-25T13:13:32;8.30;82.90
27314;DHT22;14800;48.174;9.798;2023-04-25T13:16:02;8.30;82.80
27314;DHT22;14800;48.174;9.798;2023-04-25T13:18:32;8.30;83.10
27314;DHT22;14800;48.174;9.798;2023-04-25T13:20:58;8.30;82.70
27314;DHT22;14800;48.174;9.798;2023-04-25T13:23:26;8.30;82.90
27314;DHT22;14800;48.174;9.798;2023-04-25T13:25:52;8.30;83.70
27314;DHT22;14800;48.174;9.798;2023-04-25T13:28:18;8.30;83.80
27314;DHT22;14800;48.174;9.798;2023-04-25T13:30:44;8.40;84.50
27314;DHT22;14800;48.174;9.798;2023-04-25T13:33:10;8.40;84.20
27314;DHT22;14800;48.174;9.798;2023-04-25T13:35:36;8.50;84.50
27314;DHT22;14800;48.174;9.798;2023-04-25T13:38:02;8.50;84.10
27314;DHT22;14800;48.174;9.798;2023-04-25T13:40:28;8.60;84.60
27314;DHT22;14800;48.174;9.798;2023-04-25T13:42:55;8.70;85.10
27314;DHT22;14800;48.174;9.798;2023-04-25T13:45:20;8.80;84.80
27314;DHT22;14800;48.174;9.798;2023-04-25T13:47:46;8.90;84.50
27314;DHT22;14800;48.174;9.798;2023-04-25T13:50:12;9.00;83.70
27314;DHT22;14800;48.174;9.798;2023-04-25T13:52:39;9.10;83.30
27314;DHT22;14800;48.174;9.798;2023-04-25T13:55:05;9.20;83.50
27314;DHT22;14800;48.174;9.798;2023-04-25T13:57:33;9.30;83.40
27314;DHT22;14800;48.174;9.798;2023-04-25T13:59:59;9.40;82.70
27314;DHT22;14800;48.174;9.798;2023-04-25T14:02:25;9.50;81.90
27314;DHT22;14800;48.174;9.798;2023-04-25T14:04:51;9.50;81.00
27314;DHT22;14800;48.174;9.798;2023-04-25T14:07:16;9.60;81.30
27314;DHT22;14800;48.174;9.798;2023-04-25T14:09:43;9.60;81.50
27314;DHT22;14800;48.174;9.798;2023-04-25T14:12:09;9.70;81.30
27314;DHT22;14800;48.174;9.798;2023-04-25T14:14:34;9.80;80.80
27314;DHT22;14800;48.174;9.798;2023-04-25T14:17:00;9.90;80.60
27314;DHT22;14800;48.174;9.798;2023-04-25T14:19:26;9.90;81.20
27314;DHT22;14800;48.174;9.798;2023-04-25T14:21:51;10.00;80.50
27314;DHT22;14800;48.174;9.798;2023-04-25T14:24:17;10.10;80.20
27314;DHT22;14800;48.174;9.798;2023-04-25T14:26:43;10.20;80.20
27314;DHT22;14800;48.174;9.798;2023-04-25T14:29:09;10.40;80.60
27314;DHT22;14800;48.174;9.798;2023-04-25T14:31:37;10.50;79.30
27314;DHT22;14800;48.174;9.798;2023-04-25T14:34:04;10.60;78.90
27314;DHT22;14800;48.174;9.798;2023-04-25T14:36:31;10.70;77.00
27314;DHT22;14800;48.174;9.798;2023-04-25T14:38:57;10.80;76.40
27314;DHT22;14800;48.174;9.798;2023-04-25T14:41:23;10.80;75.70
27314;DHT22;14800;48.174;9.798;2023-04-25T14:43:49;10.80;75.60
27314;DHT22;14800;48.174;9.798;2023-04-25T14:46:14;10.70;74.40
27314;DHT22;14800;48.174;9.798;2023-04-25T14:48:40;10.70;74.80
27314;DHT22;14800;48.174;9.798;2023-04-25T14:51:06;10.70;74.20
27314;DHT22;14800;48.174;9.798;2023-04-25T14:53:32;10.60;74.10
27314;DHT22;14800;48.174;9.798;2023-04-25T14:55:58;10.60;73.80
27314;DHT22;14800;48.174;9.798;2023-04-25T14:58:23;10.60;74.10
27314;DHT22;14800;48.174;9.798;2023-04-25T15:00:49;10.70;74.00
27314;DHT22;14800;48.174;9.798;2023-04-25T15:03:14;10.70;74.40
27314;DHT22;14800;48.174;9.798;2023-04-25T15:05:42;10.70;74.50
27314;DHT22;14800;48.174;9.798;2023-04-25T15:08:07;10.70;74.30
27314;DHT22;14800;48.174;9.798;2023-04-25T15:10:33;10.70;74.20
27314;DHT22;14800;48.174;9.798;2023-04-25T15:12:59;10.70;74.40
27314;DHT22;14800;48.174;9.798;2023-04-25T15:15:24;10.70;74.30
27314;DHT22;14800;48.174;9.798;2023-04-25T15:17:50;10.70;73.50
27314;DHT22;14800;48.174;9.798;2023-04-25T15:20:16;10.80;73.70
27314;DHT22;14800;48.174;9.798;2023-04-25T15:22:44;10.80;73.90
27314;DHT22;14800;48.174;9.798;2023-04-25T15:25:15;10.80;73.90
27314;DHT22;14800;48.174;9.798;2023-04-25T15:27:43;10.90;73.70
27314;DHT22;14800;48.174;9.798;2023-04-25T15:30:13;11.00;72.60
27314;DHT22;14800;48.174;9.798;2023-04-25T15:32:43;11.00;72.50
27314;DHT22;14800;48.174;9.798;2023-04-25T15:35:10;11.00;73.00
27314;DHT22;14800;48.174;9.798;2023-04-25T15:37:36;11.10;72.80
27314;DHT22;14800;48.174;9.798;2023-04-25T15:40:07;11.20;71.80
27314;DHT22;14800;48.174;9.798;2023-04-25T15:42:42;11.20;70.20
27314;DHT22;14800;48.174;9.798;2023-04-25T15:45:09;11.20;70.70